createdAt,value
2023-02-13T00:00:24.946Z,101367.38
2023-02-13T00:01:27.570Z,101375.91
2023-02-13T00:02:29.787Z,101371.63
2023-02-13T00:03:32.042Z,101368.91
2023-02-13T00:04:34.790Z,101367.22
2023-02-13T00:05:36.966Z,101366.31
2023-02-13T00:06:39.189Z,101369.72
2023-02-13T00:07:41.527Z,101366.31
2023-02-13T00:08:43.732Z,101362.75
2023-02-13T00:09:45.904Z,101362.88
2023-02-13T00:10:48.713Z,101370.66
2023-02-13T00:11:50.984Z,101352.34
2023-02-13T00:12:53.607Z,101362.69
2023-02-13T00:13:55.938Z,101362.56
2023-02-13T00:14:59.083Z,101360.84
2023-02-13T00:16:03.614Z,101359.00
2023-02-13T00:17:07.200Z,101365.84
2023-02-13T00:18:09.525Z,101368.41
2023-02-13T00:19:11.775Z,101360.63
2023-02-13T00:20:14.274Z,101359.72
2023-02-13T00:21:16.446Z,101361.50
2023-02-13T00:22:18.702Z,101365.72
2023-02-13T00:23:21.064Z,101365.72
2023-02-13T00:24:23.342Z,101361.28
2023-02-13T00:25:25.530Z,101357.75
2023-02-13T00:26:27.771Z,101366.31
2023-02-13T00:27:29.997Z,101362.84
2023-02-13T00:28:32.271Z,101368.81
2023-02-13T00:29:37.582Z,101367.91
2023-02-13T00:30:39.944Z,101367.97
2023-02-13T00:31:42.354Z,101364.44
2023-02-13T00:32:44.678Z,101367.03
2023-02-13T00:33:47.351Z,101360.13
2023-02-13T00:34:49.613Z,101356.59
2023-02-13T00:35:51.830Z,101370.41
2023-02-13T00:36:54.061Z,101365.19
2023-02-13T00:37:56.520Z,101357.44
2023-02-13T00:38:59.943Z,101365.13
2023-02-13T00:40:02.457Z,101362.59
2023-02-13T00:41:05.421Z,101355.81
2023-02-13T00:42:07.692Z,101362.72
2023-02-13T00:43:09.850Z,101359.19
2023-02-13T00:44:12.218Z,101360.03
2023-02-13T00:45:14.456Z,101356.59
2023-02-13T00:46:17.525Z,101364.38
2023-02-13T00:47:20.525Z,101365.97
2023-02-13T00:48:22.683Z,101359.09
2023-02-13T00:49:24.980Z,101359.13
2023-02-13T00:50:27.184Z,101360.81
2023-02-13T00:51:29.402Z,101362.50
2023-02-13T00:52:33.781Z,101353.78
2023-02-13T00:53:36.884Z,101363.25
2023-02-13T00:54:39.072Z,101360.69
2023-02-13T00:55:42.676Z,101367.44
2023-02-13T00:56:45.632Z,101361.38
2023-02-13T00:57:48.653Z,101357.91
2023-02-13T00:58:50.880Z,101358.84
2023-02-13T00:59:53.197Z,101364.84
2023-02-13T01:00:55.965Z,101366.53
2023-02-13T01:01:58.446Z,101359.50
2023-02-13T01:03:00.718Z,101363.81
2023-02-13T01:04:03.016Z,101363.84
2023-02-13T01:05:05.690Z,101368.91
2023-02-13T01:06:08.043Z,101370.59
2023-02-13T01:07:10.259Z,101366.25
2023-02-13T01:08:13.355Z,101367.06
2023-02-13T01:09:15.635Z,101365.47
2023-02-13T01:10:17.978Z,101368.06
2023-02-13T01:11:20.306Z,101366.13
2023-02-13T01:12:22.490Z,101366.13
2023-02-13T01:13:25.148Z,101362.66
2023-02-13T01:14:29.290Z,101365.19
2023-02-13T01:15:32.420Z,101366.97
2023-02-13T01:16:34.621Z,101366.84
2023-02-13T01:17:39.566Z,101367.56
2023-02-13T01:18:41.785Z,101371.72
2023-02-13T01:19:44.056Z,101366.53
2023-02-13T01:21:00.003Z,101364.88
2023-02-13T01:22:02.330Z,101362.94
2023-02-13T01:23:05.703Z,101365.34
2023-02-13T01:24:08.062Z,101364.50
2023-02-13T01:25:11.704Z,101356.56
2023-02-13T01:26:18.779Z,101356.78
2023-02-13T01:27:21.088Z,101364.41
2023-02-13T01:28:23.322Z,101365.16
2023-02-13T01:29:25.632Z,101368.66
2023-02-13T01:30:27.846Z,101363.41
2023-02-13T01:31:31.180Z,101356.38
2023-02-13T01:32:33.433Z,101362.41
2023-02-13T01:33:36.083Z,101357.91
2023-02-13T01:34:38.300Z,101354.63
2023-02-13T01:35:40.564Z,101360.50
2023-02-13T01:36:45.305Z,101355.34
2023-02-13T01:37:47.578Z,101360.41
2023-02-13T01:38:54.238Z,101347.41
2023-02-13T01:39:56.693Z,101362.00
2023-02-13T01:40:59.232Z,101349.97
2023-02-13T01:42:01.921Z,101356.81
2023-02-13T01:43:08.959Z,101360.22
2023-02-13T01:44:48.629Z,101355.75
2023-02-13T01:45:56.242Z,101344.53
2023-02-13T01:46:58.480Z,101350.56
2023-02-13T01:48:05.955Z,101340.16
2023-02-13T01:49:15.068Z,101349.56
2023-02-13T01:50:33.828Z,101355.59
2023-02-13T01:51:36.824Z,101350.41
2023-02-13T01:53:04.150Z,101351.22
2023-02-13T01:54:12.500Z,101352.88
2023-02-13T01:55:16.020Z,101349.44
2023-02-13T01:56:25.211Z,101346.84
2023-02-13T01:57:32.778Z,101345.91
2023-02-13T01:58:39.013Z,101350.47
2023-02-13T02:02:07.986Z,101343.81
2023-02-13T02:03:19.075Z,101353.25
2023-02-13T02:04:33.598Z,101351.50
2023-02-13T02:05:39.335Z,101345.59
2023-02-13T02:06:46.613Z,101347.28
2023-02-13T02:07:59.787Z,101344.94
2023-02-13T02:09:10.385Z,101350.94
2023-02-13T02:10:17.011Z,101348.94
2023-02-13T02:12:04.051Z,101355.75
2023-02-13T02:13:20.562Z,101348.84
2023-02-13T02:14:22.989Z,101347.94
2023-02-13T02:15:25.360Z,101356.59
2023-02-13T02:16:29.226Z,101349.66
2023-02-13T02:17:31.610Z,101348.88
2023-02-13T02:18:34.707Z,101356.59
2023-02-13T02:19:49.257Z,101347.19
2023-02-13T02:21:29.448Z,101341.38
2023-02-13T02:23:04.064Z,101340.56
2023-02-13T02:24:26.222Z,101348.38
2023-02-13T02:25:31.775Z,101338.84
2023-02-13T02:26:57.562Z,101338.78
2023-02-13T02:28:17.964Z,101341.31
2023-02-13T02:29:53.071Z,101333.56
2023-02-13T02:31:26.291Z,101337.19
2023-02-13T02:33:00.703Z,101335.84
2023-02-13T02:34:38.955Z,101332.06
2023-02-13T02:36:01.796Z,101333.81
2023-02-13T02:37:20.933Z,101330.06
2023-02-13T02:38:44.718Z,101330.97
2023-02-13T02:40:09.893Z,101329.69
2023-02-13T02:41:48.280Z,101335.69
2023-02-13T02:42:59.492Z,101329.81
2023-02-13T02:44:27.608Z,101327.84
2023-02-13T02:46:07.141Z,101330.47
2023-02-13T02:47:45.241Z,101331.25
2023-02-13T02:49:23.543Z,101327.00
2023-02-13T02:50:40.164Z,101331.13
2023-02-13T02:52:13.648Z,101325.78
2023-02-13T02:53:21.814Z,101328.28
2023-02-13T02:54:48.002Z,101316.44
2023-02-13T02:56:18.839Z,101316.19
2023-02-13T02:57:49.842Z,101317.00
2023-02-13T02:59:39.056Z,101321.94
2023-02-13T03:01:01.385Z,101316.78
2023-02-13T03:02:23.400Z,101316.78
2023-02-13T03:03:45.618Z,101323.59
2023-02-13T03:05:11.567Z,101311.59
2023-02-13T03:06:29.919Z,101313.03
2023-02-13T03:07:32.835Z,101319.09
2023-02-13T03:08:53.917Z,101314.88
2023-02-13T03:10:18.329Z,101314.13
2023-02-13T03:11:40.332Z,101317.25
2023-02-13T03:13:07.385Z,101318.63
2023-02-13T03:14:13.250Z,101320.94
2023-02-13T03:15:15.561Z,101320.00
2023-02-13T03:16:41.184Z,101329.44
2023-02-13T03:18:02.301Z,101324.78
2023-02-13T03:19:23.379Z,101324.63
2023-02-13T03:20:58.459Z,101325.53
2023-02-13T03:22:18.851Z,101321.94
2023-02-13T03:23:33.552Z,101324.47
2023-02-13T03:25:03.207Z,101322.72
2023-02-13T03:26:17.360Z,101328.13
2023-02-13T03:27:53.144Z,101318.50
2023-02-13T03:29:25.148Z,101323.69
2023-02-13T03:30:39.085Z,101330.84
2023-02-13T03:32:01.430Z,101330.66
2023-02-13T03:33:21.630Z,101322.09
2023-02-13T03:34:47.875Z,101325.38
2023-02-13T03:36:28.532Z,101332.22
2023-02-13T03:37:55.368Z,101331.31
2023-02-13T03:39:07.729Z,101336.50
2023-02-13T03:40:17.192Z,101333.06
2023-02-13T03:41:40.051Z,101333.06
2023-02-13T03:42:58.421Z,101337.34
2023-02-13T03:44:14.348Z,101339.13
2023-02-13T03:45:41.485Z,101334.84
2023-02-13T03:46:49.705Z,101332.91
2023-02-13T03:47:56.890Z,101334.59
2023-02-13T03:49:21.117Z,101335.63
2023-02-13T03:50:25.736Z,101344.13
2023-02-13T03:51:39.812Z,101343.34
2023-02-13T03:52:56.680Z,101337.34
2023-02-13T03:54:05.351Z,101348.59
2023-02-13T03:55:28.832Z,101345.41
2023-02-13T03:56:52.989Z,101342.97
2023-02-13T03:58:20.877Z,101338.34
2023-02-13T03:59:28.792Z,101334.91
2023-02-13T04:00:38.369Z,101345.13
2023-02-13T04:01:43.724Z,101346.09
2023-02-13T04:03:25.519Z,101338.22
2023-02-13T04:04:55.314Z,101348.41
2023-02-13T04:06:06.115Z,101342.22
2023-02-13T04:07:12.235Z,101345.75
2023-02-13T04:08:14.486Z,101347.66
2023-02-13T04:09:17.201Z,101351.66
2023-02-13T04:10:20.104Z,101351.66
2023-02-13T04:11:33.130Z,101350.88
2023-02-13T04:13:15.919Z,101346.38
2023-02-13T04:14:26.126Z,101350.75
2023-02-13T04:15:34.790Z,101351.56
2023-02-13T04:16:45.582Z,101353.22
2023-02-13T04:17:56.623Z,101357.56
2023-02-13T04:19:00.881Z,101354.13
2023-02-13T04:20:03.777Z,101358.69
2023-02-13T04:21:07.755Z,101356.03
2023-02-13T04:22:12.363Z,101356.16
2023-02-13T04:23:15.836Z,101355.13
2023-02-13T04:24:18.035Z,101350.78
2023-02-13T04:25:21.145Z,101354.97
2023-02-13T04:26:23.671Z,101362.88
2023-02-13T04:27:28.505Z,101359.50
2023-02-13T04:28:30.834Z,101369.63
2023-02-13T04:29:33.149Z,101360.09
2023-02-13T04:30:35.438Z,101365.41
2023-02-13T04:31:37.851Z,101371.31
2023-02-13T04:32:40.158Z,101366.97
2023-02-13T04:33:42.334Z,101365.13
2023-02-13T04:34:44.554Z,101363.41
2023-02-13T04:35:46.795Z,101357.44
2023-02-13T04:36:49.077Z,101366.03
2023-02-13T04:37:51.319Z,101359.00
2023-02-13T04:38:53.642Z,101368.31
2023-02-13T04:39:55.825Z,101348.50
2023-02-13T04:40:58.383Z,101359.84
2023-02-13T04:42:00.971Z,101354.56
2023-02-13T04:43:03.268Z,101352.78
2023-02-13T04:44:05.735Z,101358.00
2023-02-13T04:45:08.390Z,101347.56
2023-02-13T04:46:10.752Z,101357.88
2023-02-13T04:47:12.978Z,101355.47
2023-02-13T04:48:15.254Z,101354.78
2023-02-13T04:49:17.497Z,101348.06
2023-02-13T04:50:20.487Z,101338.59
2023-02-13T04:51:22.790Z,101348.28
2023-02-13T04:52:25.028Z,101338.75
2023-02-13T04:53:27.291Z,101347.59
2023-02-13T04:54:29.485Z,101342.91
2023-02-13T04:55:31.692Z,101338.50
2023-02-13T04:56:34.078Z,101336.31
2023-02-13T04:57:36.298Z,101341.53
2023-02-13T04:58:38.572Z,101342.13
2023-02-13T04:59:41.078Z,101347.06
2023-02-13T05:00:43.308Z,101334.84
2023-02-13T05:01:45.596Z,101343.28
2023-02-13T05:02:47.881Z,101344.91
2023-02-13T05:03:50.154Z,101347.56
2023-02-13T05:04:52.385Z,101352.44
2023-02-13T05:05:54.608Z,101342.16
2023-02-13T05:06:56.830Z,101353.22
2023-02-13T05:07:59.077Z,101347.44
2023-02-13T05:09:01.279Z,101339.50
2023-02-13T05:10:03.624Z,101349.91
2023-02-13T05:11:06.325Z,101348.91
2023-02-13T05:12:08.513Z,101349.97
2023-02-13T05:13:10.960Z,101350.91
2023-02-13T05:14:13.228Z,101353.28
2023-02-13T05:15:15.562Z,101355.81
2023-02-13T05:16:17.813Z,101347.31
2023-02-13T05:17:20.121Z,101344.72
2023-02-13T05:18:22.334Z,101339.63
2023-02-13T05:19:24.512Z,101337.06
2023-02-13T05:20:26.817Z,101341.88
2023-02-13T05:21:47.512Z,101343.44
2023-02-13T05:23:11.045Z,101344.31
2023-02-13T05:24:13.247Z,101343.38
2023-02-13T05:25:15.909Z,101341.34
2023-02-13T05:26:18.162Z,101341.09
2023-02-13T05:27:20.332Z,101336.72
2023-02-13T05:28:40.956Z,101342.72
2023-02-13T05:29:43.226Z,101334.63
2023-02-13T05:30:45.469Z,101335.47
2023-02-13T05:31:49.722Z,101328.75
2023-02-13T05:32:52.270Z,101325.94
2023-02-13T05:33:54.480Z,101331.94
2023-02-13T05:34:56.682Z,101330.16
2023-02-13T05:35:58.835Z,101327.56
2023-02-13T05:37:01.143Z,101325.88
2023-02-13T05:38:03.471Z,101339.13
2023-02-13T05:39:06.274Z,101338.94
2023-02-13T05:40:09.515Z,101343.31
2023-02-13T05:41:13.495Z,101334.59
2023-02-13T05:42:15.747Z,101336.84
2023-02-13T05:43:19.165Z,101340.38
2023-02-13T05:44:21.342Z,101331.97
2023-02-13T05:45:23.716Z,101334.50
2023-02-13T05:46:26.005Z,101345.63
2023-02-13T05:47:28.219Z,101331.16
2023-02-13T05:48:30.423Z,101330.25
2023-02-13T05:49:32.636Z,101328.63
2023-02-13T05:50:34.860Z,101326.81
2023-02-13T05:51:37.128Z,101323.41
2023-02-13T05:52:39.353Z,101330.38
2023-02-13T05:53:41.523Z,101325.28
2023-02-13T05:54:43.956Z,101326.34
2023-02-13T05:55:46.516Z,101329.19
2023-02-13T05:56:48.839Z,101326.75
2023-02-13T05:57:57.391Z,101327.00
2023-02-13T05:58:59.652Z,101328.69
2023-02-13T06:00:02.244Z,101322.22
2023-02-13T06:01:07.981Z,101327.84
2023-02-13T06:02:10.355Z,101326.09
2023-02-13T06:03:12.717Z,101325.38
2023-02-13T06:04:15.041Z,101327.41
2023-02-13T06:05:17.415Z,101322.94
2023-02-13T06:06:20.526Z,101321.34
2023-02-13T06:07:23.203Z,101322.06
2023-02-13T06:08:26.504Z,101323.97
2023-02-13T06:09:28.714Z,101321.44
2023-02-13T06:10:30.899Z,101316.28
2023-02-13T06:11:33.116Z,101319.44
2023-02-13T06:12:35.558Z,101321.03
2023-02-13T06:13:40.566Z,101324.41
2023-02-13T06:14:42.812Z,101324.19
2023-02-13T06:15:45.865Z,101322.44
2023-02-13T06:16:48.099Z,101322.38
2023-02-13T06:17:50.281Z,101317.06
2023-02-13T06:18:52.509Z,101316.94
2023-02-13T06:19:55.028Z,101316.03
2023-02-13T06:20:57.510Z,101313.56
2023-02-13T06:21:59.903Z,101323.81
2023-02-13T06:23:02.088Z,101318.72
2023-02-13T06:24:05.869Z,101314.41
2023-02-13T06:25:08.041Z,101308.34
2023-02-13T06:26:10.298Z,101320.59
2023-02-13T06:27:12.469Z,101318.72
2023-02-13T06:28:14.683Z,101316.28
2023-02-13T06:29:16.977Z,101319.44
2023-02-13T06:30:19.765Z,101320.22
2023-02-13T06:31:22.091Z,101319.16
2023-02-13T06:32:24.454Z,101321.66
2023-02-13T06:33:26.850Z,101313.91
2023-02-13T06:34:29.088Z,101320.72
2023-02-13T06:35:31.318Z,101326.84
2023-02-13T06:36:33.693Z,101320.06
2023-02-13T06:37:35.927Z,101326.09
2023-02-13T06:38:38.139Z,101332.94
2023-02-13T06:39:40.469Z,101330.16
2023-02-13T06:40:43.042Z,101326.66
2023-02-13T06:41:45.248Z,101323.19
2023-02-13T06:42:47.537Z,101325.81
2023-02-13T06:43:49.765Z,101314.63
2023-02-13T06:44:52.078Z,101317.06
2023-02-13T06:45:54.306Z,101327.31
2023-02-13T06:46:56.589Z,101331.63
2023-02-13T06:47:58.831Z,101328.25
2023-02-13T06:49:01.008Z,101323.19
2023-02-13T06:50:03.249Z,101328.28
2023-02-13T06:51:05.786Z,101324.97
2023-02-13T06:52:08.010Z,101326.72
2023-02-13T06:53:10.387Z,101327.63
2023-02-13T06:54:12.567Z,101332.72
2023-02-13T06:55:15.300Z,101330.16
2023-02-13T06:56:17.625Z,101328.50
2023-02-13T06:57:19.822Z,101322.47
2023-02-13T06:58:23.560Z,101333.63
2023-02-13T06:59:25.778Z,101327.72
2023-02-13T07:00:28.401Z,101326.00
2023-02-13T07:01:30.645Z,101328.56
2023-02-13T07:02:33.256Z,101330.31
2023-02-13T07:03:35.491Z,101330.19
2023-02-13T07:04:37.778Z,101338.00
2023-02-13T07:05:44.115Z,101332.19
2023-02-13T07:06:46.320Z,101328.97
2023-02-13T07:07:48.518Z,101340.88
2023-02-13T07:08:55.156Z,101335.16
2023-02-13T07:09:57.408Z,101343.88
2023-02-13T07:10:59.855Z,101340.63
2023-02-13T07:12:05.662Z,101338.84
2023-02-13T07:13:09.363Z,101336.19
2023-02-13T07:14:11.578Z,101331.19
2023-02-13T07:15:13.816Z,101338.84
2023-02-13T07:16:16.214Z,101347.53
2023-02-13T07:17:18.459Z,101344.28
2023-02-13T07:18:20.700Z,101342.03
2023-02-13T07:19:22.954Z,101331.81
2023-02-13T07:20:26.329Z,101343.78
2023-02-13T07:21:28.547Z,101338.56
2023-02-13T07:22:32.812Z,101337.00
2023-02-13T07:23:35.032Z,101340.59
2023-02-13T07:24:38.532Z,101345.81
2023-02-13T07:25:40.693Z,101341.91
2023-02-13T07:26:42.945Z,101336.16
2023-02-13T07:27:45.378Z,101346.59
2023-02-13T07:28:47.668Z,101340.75
2023-02-13T07:29:50.042Z,101335.59
2023-02-13T07:30:52.421Z,101338.16
2023-02-13T07:31:58.683Z,101340.59
2023-02-13T07:33:02.568Z,101342.44
2023-02-13T07:34:04.798Z,101338.28
2023-02-13T07:35:07.063Z,101339.13
2023-02-13T07:36:09.377Z,101345.41
2023-02-13T07:37:11.651Z,101342.00
2023-02-13T07:38:13.925Z,101342.16
2023-02-13T07:39:16.313Z,101336.13
2023-02-13T07:40:18.554Z,101343.09
2023-02-13T07:41:21.016Z,101339.88
2023-02-13T07:42:23.477Z,101344.31
2023-02-13T07:43:25.823Z,101332.75
2023-02-13T07:44:28.052Z,101340.94
2023-02-13T07:45:30.482Z,101344.47
2023-02-13T07:46:33.220Z,101338.34
2023-02-13T07:47:35.482Z,101339.34
2023-02-13T07:48:37.699Z,101342.66
2023-02-13T07:49:40.026Z,101334.09
2023-02-13T07:50:42.259Z,101340.03
2023-02-13T07:51:44.505Z,101343.16
2023-02-13T07:52:53.801Z,101344.91
2023-02-13T07:53:56.677Z,101335.47
2023-02-13T07:55:00.109Z,101336.69
2023-02-13T07:56:09.026Z,101343.84
2023-02-13T07:57:11.224Z,101336.97
2023-02-13T07:58:13.390Z,101332.69
2023-02-13T07:59:15.745Z,101337.69
2023-02-13T08:00:18.893Z,101334.72
2023-02-13T08:01:21.172Z,101332.31
2023-02-13T08:02:23.420Z,101337.72
2023-02-13T08:03:25.615Z,101333.91
2023-02-13T08:04:27.830Z,101345.69
2023-02-13T08:05:32.187Z,101336.63
2023-02-13T08:06:34.434Z,101333.19
2023-02-13T08:07:37.018Z,101326.59
2023-02-13T08:08:39.295Z,101319.63
2023-02-13T08:10:00.454Z,101333.06
2023-02-13T08:11:24.942Z,101333.19
2023-02-13T08:12:27.204Z,101334.59
2023-02-13T08:13:29.512Z,101324.88
2023-02-13T08:14:31.800Z,101319.97
2023-02-13T08:15:34.075Z,101339.66
2023-02-13T08:16:36.427Z,101327.31
2023-02-13T08:17:38.707Z,101325.22
2023-02-13T08:18:40.924Z,101316.91
2023-02-13T08:19:43.130Z,101328.38
2023-02-13T08:20:45.344Z,101327.03
2023-02-13T08:21:47.696Z,101323.28
2023-02-13T08:22:50.064Z,101326.75
2023-02-13T08:23:52.330Z,101320.28
2023-02-13T08:24:54.564Z,101319.75
2023-02-13T08:26:01.250Z,101323.03
2023-02-13T08:27:03.847Z,101320.22
2023-02-13T08:28:06.125Z,101326.63
2023-02-13T08:29:08.477Z,101327.19
2023-02-13T08:30:11.443Z,101323.69
2023-02-13T08:31:13.782Z,101323.03
2023-02-13T08:32:16.504Z,101329.22
2023-02-13T08:33:18.822Z,101327.94
2023-02-13T08:34:21.066Z,101327.97
2023-02-13T08:35:26.882Z,101327.66
2023-02-13T08:36:29.488Z,101326.97
2023-02-13T08:37:31.761Z,101322.03
2023-02-13T08:38:34.184Z,101323.16
2023-02-13T08:39:36.366Z,101327.63
2023-02-13T08:40:38.563Z,101337.38
2023-02-13T08:41:40.999Z,101332.16
2023-02-13T08:42:43.569Z,101326.59
2023-02-13T08:43:45.839Z,101338.94
2023-02-13T08:44:48.096Z,101334.75
2023-02-13T08:45:50.432Z,101330.88
2023-02-13T08:46:52.786Z,101334.13
2023-02-13T08:47:58.886Z,101335.41
2023-02-13T08:49:01.105Z,101339.75
2023-02-13T08:50:04.188Z,101338.34
2023-02-13T08:51:13.751Z,101340.56
2023-02-13T08:52:15.962Z,101340.25
2023-02-13T08:53:18.195Z,101337.78
2023-02-13T08:54:20.493Z,101348.81
2023-02-13T08:55:22.759Z,101341.94
2023-02-13T08:56:25.060Z,101345.59
2023-02-13T08:57:27.336Z,101350.19
2023-02-13T08:58:29.686Z,101348.69
2023-02-13T08:59:31.860Z,101350.75
2023-02-13T09:00:34.080Z,101351.34
2023-02-13T09:01:36.426Z,101349.84
2023-02-13T09:02:38.946Z,101364.66
2023-02-13T09:03:41.283Z,101350.09
2023-02-13T09:04:43.508Z,101348.25
2023-02-13T09:05:46.101Z,101355.00
2023-02-13T09:06:48.381Z,101345.78
2023-02-13T09:07:50.583Z,101354.97
2023-02-13T09:08:53.140Z,101349.13
2023-02-13T09:09:55.353Z,101347.78
2023-02-13T09:11:01.216Z,101341.25
2023-02-13T09:12:03.433Z,101350.31
2023-02-13T09:13:05.962Z,101351.16
2023-02-13T09:14:08.268Z,101353.63
2023-02-13T09:15:10.799Z,101357.78
2023-02-13T09:16:13.014Z,101361.28
2023-02-13T09:17:18.320Z,101357.84
2023-02-13T09:18:20.636Z,101349.75
2023-02-13T09:19:22.883Z,101359.84
2023-02-13T09:20:25.143Z,101358.81
2023-02-13T09:21:27.349Z,101366.47
2023-02-13T09:22:29.562Z,101358.09
2023-02-13T09:23:34.103Z,101361.47
2023-02-13T09:24:36.678Z,101368.38
2023-02-13T09:25:39.092Z,101363.81
2023-02-13T09:26:41.390Z,101359.59
2023-02-13T09:27:43.673Z,101361.31
2023-02-13T09:28:46.109Z,101366.69
2023-02-13T09:29:48.999Z,101363.94
2023-02-13T09:30:51.303Z,101361.69
2023-02-13T09:31:53.741Z,101355.78
2023-02-13T09:32:56.201Z,101369.50
2023-02-13T09:33:58.392Z,101373.84
2023-02-13T09:35:00.658Z,101364.44
2023-02-13T09:36:13.719Z,101361.78
2023-02-13T09:37:15.932Z,101371.19
2023-02-13T09:38:18.552Z,101366.66
2023-02-13T09:39:21.278Z,101372.25
2023-02-13T09:40:35.360Z,101369.38
2023-02-13T09:41:45.090Z,101363.09
2023-02-13T09:42:49.663Z,101374.34
2023-02-13T09:43:59.123Z,101371.94
2023-02-13T09:45:04.964Z,101371.31
2023-02-13T09:46:20.115Z,101376.50
2023-02-13T09:47:42.582Z,101374.69
2023-02-13T09:48:48.501Z,101369.22
2023-02-13T09:49:54.495Z,101375.19
2023-02-13T09:50:58.159Z,101369.72
2023-02-13T09:52:01.515Z,101371.56
2023-02-13T09:53:04.350Z,101366.28
2023-02-13T09:54:08.000Z,101380.78
2023-02-13T09:55:16.451Z,101369.63
2023-02-13T09:56:33.707Z,101379.25
2023-02-13T09:57:46.123Z,101377.69
2023-02-13T09:58:49.124Z,101383.09
2023-02-13T10:00:00.147Z,101384.78
2023-02-13T10:01:05.472Z,101388.00
2023-02-13T10:02:37.052Z,101389.84
2023-02-13T10:03:53.343Z,101387.16
2023-02-13T10:05:30.657Z,101381.00
2023-02-13T10:06:49.784Z,101384.75
2023-02-13T10:08:21.998Z,101388.69
2023-02-13T10:09:30.259Z,101383.31
2023-02-13T10:10:51.487Z,101385.09
2023-02-13T10:12:13.145Z,101384.53
2023-02-13T10:13:47.961Z,101393.22
2023-02-13T10:15:11.366Z,101382.88
2023-02-13T10:16:23.943Z,101393.28
2023-02-13T10:17:40.831Z,101389.16
2023-02-13T10:19:08.963Z,101388.94
2023-02-13T10:20:40.111Z,101389.81
2023-02-13T10:21:53.463Z,101384.50
2023-02-13T10:23:27.297Z,101386.19
2023-02-13T10:24:49.759Z,101381.91
2023-02-13T10:26:00.891Z,101393.50
2023-02-13T10:27:19.155Z,101386.34
2023-02-13T10:28:30.909Z,101378.03
2023-02-13T10:30:05.203Z,101378.06
2023-02-13T10:31:15.369Z,101387.47
2023-02-13T10:32:22.297Z,101384.72
2023-02-13T10:33:52.128Z,101377.88
2023-02-13T10:34:58.845Z,101381.38
2023-02-13T10:36:10.076Z,101386.63
2023-02-13T10:37:18.644Z,101379.78
2023-02-13T10:38:23.069Z,101378.84
2023-02-13T10:39:30.554Z,101382.41
2023-02-13T10:40:40.372Z,101379.78
2023-02-13T10:41:57.925Z,101378.06
2023-02-13T10:43:10.582Z,101382.31
2023-02-13T10:44:28.271Z,101372.63
2023-02-13T10:45:43.875Z,101374.41
2023-02-13T10:47:08.615Z,101368.38
2023-02-13T10:48:30.890Z,101364.16
2023-02-13T10:49:51.443Z,101370.16
2023-02-13T10:51:01.779Z,101363.25
2023-02-13T10:52:30.519Z,101369.25
2023-02-13T10:53:43.753Z,101364.94
2023-02-13T10:55:03.343Z,101354.50
2023-02-13T10:56:27.127Z,101356.28
2023-02-13T10:57:58.494Z,101347.56
2023-02-13T10:59:22.251Z,101351.03
2023-02-13T11:00:31.496Z,101343.13
2023-02-13T11:01:56.347Z,101357.91
2023-02-13T11:02:59.762Z,101350.97
2023-02-13T11:04:12.005Z,101343.19
2023-02-13T11:05:22.125Z,101343.16
2023-02-13T11:06:24.461Z,101348.41
2023-02-13T11:07:28.739Z,101342.38
2023-02-13T11:08:43.192Z,101341.53
2023-02-13T11:09:49.403Z,101338.84
2023-02-13T11:10:52.472Z,101338.03
2023-02-13T11:11:54.932Z,101340.56
2023-02-13T11:12:57.424Z,101344.13
2023-02-13T11:14:20.050Z,101343.25
2023-02-13T11:15:29.566Z,101332.88
2023-02-13T11:16:40.514Z,101328.50
2023-02-13T11:17:44.106Z,101339.78
2023-02-13T11:18:50.634Z,101332.88
2023-02-13T11:19:55.558Z,101327.63
2023-02-13T11:21:08.781Z,101341.50
2023-02-13T11:22:42.698Z,101335.50
2023-02-13T11:23:53.186Z,101332.88
2023-02-13T11:25:02.310Z,101331.09
2023-02-13T11:26:10.170Z,101345.06
2023-02-13T11:27:13.934Z,101335.47
2023-02-13T11:28:20.901Z,101340.72
2023-02-13T11:29:31.647Z,101331.97
2023-02-13T11:30:38.442Z,101338.03
2023-02-13T11:31:40.859Z,101342.44
2023-02-13T11:32:57.816Z,101350.28
2023-02-13T11:34:18.771Z,101345.09
2023-02-13T11:35:30.615Z,101347.69
2023-02-13T11:36:34.209Z,101340.69
2023-02-13T11:37:36.472Z,101343.28
2023-02-13T11:38:38.863Z,101350.28
2023-02-13T11:39:42.615Z,101343.31
2023-02-13T11:40:48.160Z,101340.72
2023-02-13T11:41:53.417Z,101345.94
2023-02-13T11:42:55.689Z,101336.38
2023-02-13T11:44:02.391Z,101340.72
2023-02-13T11:45:26.902Z,101334.59
2023-02-13T11:46:31.307Z,101340.72
2023-02-13T11:47:41.858Z,101328.47
2023-02-13T11:48:55.890Z,101328.47
2023-02-13T11:49:58.207Z,101331.09
2023-02-13T11:51:00.810Z,101324.97
2023-02-13T11:52:06.395Z,101324.09
2023-02-13T11:53:20.604Z,101326.66
2023-02-13T11:54:29.222Z,101327.59
2023-02-13T11:55:35.459Z,101341.59
2023-02-13T11:57:04.433Z,101333.75
2023-02-13T11:58:16.190Z,101331.97
2023-02-13T11:59:23.881Z,101325.03
2023-02-13T12:00:32.327Z,101326.72
2023-02-13T12:01:34.575Z,101326.72
2023-02-13T12:02:49.879Z,101324.13
2023-02-13T12:04:07.631Z,101317.16
2023-02-13T12:05:24.381Z,101315.41
2023-02-13T12:06:26.839Z,101330.22
2023-02-13T12:07:32.241Z,101327.56
2023-02-13T12:08:39.264Z,101324.13
2023-02-13T12:09:43.160Z,101325.88
2023-02-13T12:10:45.545Z,101321.47
2023-02-13T12:11:51.401Z,101325.78
2023-02-13T12:13:02.372Z,101319.59
2023-02-13T12:14:05.083Z,101315.31
2023-02-13T12:15:27.498Z,101328.44
2023-02-13T12:16:40.065Z,101314.53
2023-02-13T12:17:45.284Z,101317.09
2023-02-13T12:18:52.782Z,101317.09
2023-02-13T12:19:55.575Z,101318.84
2023-02-13T12:21:03.233Z,101310.16
2023-02-13T12:22:15.017Z,101309.22
2023-02-13T12:23:41.413Z,101310.03
2023-02-13T12:25:16.384Z,101306.53
2023-02-13T12:26:28.736Z,101307.44
2023-02-13T12:27:42.947Z,101298.75
2023-02-13T12:29:12.873Z,101305.78
2023-02-13T12:30:36.387Z,101300.50
2023-02-13T12:31:49.841Z,101296.19
2023-02-13T12:33:29.571Z,101307.53
2023-02-13T12:34:43.711Z,101299.66
2023-02-13T12:36:23.082Z,101293.53
2023-02-13T12:37:45.030Z,101292.63
2023-02-13T12:39:31.727Z,101296.06
2023-02-13T12:40:54.042Z,101294.31
2023-02-13T12:42:39.454Z,101298.69
2023-02-13T12:44:00.203Z,101296.06
2023-02-13T12:45:26.832Z,101303.00
2023-02-13T12:46:42.583Z,101287.19
2023-02-13T12:48:10.540Z,101291.47
2023-02-13T12:49:44.807Z,101296.63
2023-02-13T12:51:03.601Z,101293.41
2023-02-13T12:52:22.930Z,101283.69
2023-02-13T12:53:43.905Z,101293.19
2023-02-13T12:55:20.967Z,101296.91
2023-02-13T12:56:55.063Z,101283.81
2023-02-13T12:58:36.215Z,101280.13
2023-02-13T12:59:47.046Z,101287.13
2023-02-13T13:01:17.590Z,101288.06
2023-02-13T13:02:37.820Z,101288.91
2023-02-13T13:04:17.340Z,101277.53